• Join FlightAware (Why Join?)
  • Login
  • US Flag GB Flag 
13:12 EDT


 

Airport Tracker/Info


-or-


 

Live Flight TrackerFlight Track Log ✈ PDT4373 ✈ 22-Oct-2013 ✈ KBGM - KPHL

Flight Track Log - Related Links

Times and Time Zones

All times are in EDT time to prevent confusion due to time zone crossing. See the PDT4373 flight status page for this flight to view local times or setup timezone preferences in your user account.

Time Position Orientation Groundspeed Altitude Reporting Facility
EDT Latitude Longitude Course Direction KTS MPH feet Rate Location/Type
11:39 42.0389 -75.9241 180° South  Level Estimated
11:40 41.9807 -75.9260 181° South  Level FlightAware Approximate
11:41 41.9226 -75.9278 181° South  Level FlightAware Approximate
11:42 41.8644 -75.9297 181° South  Level FlightAware Approximate
11:43 41.8082 -75.9097 154° Southeast  Level Estimated
11:44 41.7520 -75.8897 160° South  Level Estimated
11:45 41.6957 -75.8697 159° South  Level Estimated
11:46 41.6395 -75.8496 165° South  Level FlightAware Approximate
11:47 41.5833 -75.8296 165° South  Level FlightAware Approximate
11:48 41.5271 -75.8098 153° Southeast  Level Estimated
11:49 41.4709 -75.7899 161° South  Level Estimated
11:50 41.4167 -75.7616 159° South  Level FlightAware Approximate
11:51 41.3625 -75.7333 159° South  Level FlightAware Approximate
11:52 41.3062 -75.7142 162° South  Level Estimated
11:53 41.2515 -75.6878 160° South  Level FlightAware Approximate
11:54 41.1968 -75.6614 160° South  Level FlightAware Approximate
11:55 41.1422 -75.6350 160° South  Level FlightAware Approximate
11:56 41.0875 -75.6087 160° South  Level FlightAware Approximate
11:57 41.0308 -75.5912 163° South  Level Estimated
11:58 40.9758 -75.5664 161° South  Level FlightAware Approximate
11:59 40.9207 -75.5416 161° South  Level FlightAware Approximate
12:00 40.8656 -75.5168 161° South  Level FlightAware Approximate
12:01 40.8105 -75.4921 161° South  Level FlightAware Approximate
12:02 40.7536 -75.4766 190° South  Level Estimated
12:03 40.6955 -75.4820 184° South  Level FlightAware Approximate
12:03 40.6500 -75.5333 199° South 248 285 5,900  Level Philadelphia TRACON
12:04 40.6375 -75.4873 184° South  Level FlightAware Approximate
12:05 40.5795 -75.4927 184° South  Level FlightAware Approximate
12:05 40.5833 -75.5167 169° South 247 284 5,100  Level Philadelphia TRACON
12:06 40.5234 -75.4725 187° South  Level Estimated
12:06 40.5167 -75.5000 169° South 239 275 5,000  Level Philadelphia TRACON
12:07 40.4673 -75.4524 190° South  Level Estimated
12:07 40.4500 -75.4667 159° South 240 276 5,000  Level Philadelphia TRACON
12:08 40.4123 -75.4771 199° South  Level FlightAware Approximate
12:08 40.3833 -75.4333 159° South 238 274 5,000  Level Philadelphia TRACON
12:09 40.3572 -75.5019 199° South  Level FlightAware Approximate
12:09 40.3167 -75.4000 159° South 240 276 5,000  Level Philadelphia TRACON
12:10 40.2667 -75.3500 143° Southeast 241 277 5,000 -540 Level Philadelphia TRACON
12:11 40.2167 -75.3167 153° Southeast 259 298 4,000 -540 Descending Philadelphia TRACON
12:12 40.1500 -75.2833 159° South 250 288 4,000 -60 Level Philadelphia TRACON
12:13 40.0833 -75.2333 150° Southeast 241 277 3,900  Descending Philadelphia TRACON
12:14 40.0333 -75.2000 153° Southeast 235 270 4,000  Climbing Philadelphia TRACON
12:15 39.9667 -75.1833 169° South 230 265 4,000  Level Philadelphia TRACON
12:16 39.9000 -75.1667 169° South 232 267 4,000 -720 Level Philadelphia TRACON
12:17 39.8500 -75.1333 153° Southeast 202 232 2,700 -1,380 Descending Philadelphia TRACON
12:18 39.8167 -75.1500 201° Southwest 171 197 1,600 -840 Descending Philadelphia TRACON
12:18 39.8167 -75.2000 270° West 140 161 1,200 -660 Descending Philadelphia TRACON
12:20 39.8500 -75.2167 339° North 123 142 300 -900 Descending Philadelphia TRACON